Aviation Digital Data Service (ADDS)

Output produced by METARs form (0014 UTC 21 January 2019)
found at http://www.aviationweather.gov/metar/data/
 
Forecast for: LLSD (SDE DOV AIRPORT , IL)
Text: TAF LLSD 202308Z 2100/2124 16004KT CAVOK
Forecast period: 0000 to 0700 UTC 21 January 2019
Forecast type: FROM: standard forecast or significant change
Winds: from the SSE (160 degrees) at 5 MPH (4 knots; 2.1 m/s)
Visibility: 6 or more miles 10+ km)
Ceiling: unknown
Clouds: missing
Weather: NSW  (no significant weather)
Text: BECMG 2107/2109 29008KT
Forecast period: 0700 to 1600 UTC 21 January 2019
Forecast type: BECOMING: Conditions expected to become as follows by 0900 UTC 21 January 2019
Winds: from the WNW (290 degrees) at 9 MPH (8 knots; 4.1 m/s)
Visibility: 6 or more miles 10+ km)
Ceiling: unknown
Clouds: missing
Weather: NSW  (no significant weather)
Text: BECMG 2116/2118 16004KT TX18/2112Z TN08/2104Z
Forecast period: 1600 UTC 21 January 2019 to 0000 UTC 22 January 2019
Forecast type: BECOMING: Conditions expected to become as follows by 1800 UTC 21 January 2019
Winds: from the SSE (160 degrees) at 5 MPH (4 knots; 2.1 m/s)
Visibility: 6 or more miles 10+ km)
Ceiling: unknown
Clouds: missing
Weather: NSW  (no significant weather)